sensor_id;sensor_type;location;lat;lon;timestamp;P1;durP1;ratioP1;P2;durP2;ratioP2
22967;SDS011;11650;48.106;-1.696;2023-03-11T00:02:11;4.23;;;3.10;;
22967;SDS011;11650;48.106;-1.696;2023-03-11T00:04:37;5.90;;;3.50;;
22967;SDS011;11650;48.106;-1.696;2023-03-11T00:07:08;4.47;;;3.23;;
22967;SDS011;11650;48.106;-1.696;2023-03-11T00:09:35;3.27;;;2.90;;
22967;SDS011;11650;48.106;-1.696;2023-03-11T00:12:01;4.37;;;2.90;;
22967;SDS011;11650;48.106;-1.696;2023-03-11T00:14:27;3.90;;;3.30;;
22967;SDS011;11650;48.106;-1.696;2023-03-11T00:16:53;3.67;;;2.93;;
22967;SDS011;11650;48.106;-1.696;2023-03-11T00:19:19;3.90;;;3.00;;
22967;SDS011;11650;48.106;-1.696;2023-03-11T00:21:45;4.60;;;3.20;;
22967;SDS011;11650;48.106;-1.696;2023-03-11T00:24:11;4.33;;;3.37;;
22967;SDS011;11650;48.106;-1.696;2023-03-11T00:26:36;5.20;;;3.43;;
22967;SDS011;11650;48.106;-1.696;2023-03-11T00:29:02;5.00;;;3.27;;
22967;SDS011;11650;48.106;-1.696;2023-03-11T00:31:27;5.67;;;3.30;;
22967;SDS011;11650;48.106;-1.696;2023-03-11T00:33:53;4.90;;;3.43;;
22967;SDS011;11650;48.106;-1.696;2023-03-11T00:36:27;5.17;;;3.67;;
22967;SDS011;11650;48.106;-1.696;2023-03-11T00:38:55;4.37;;;3.37;;
22967;SDS011;11650;48.106;-1.696;2023-03-11T00:41:22;5.27;;;3.60;;
22967;SDS011;11650;48.106;-1.696;2023-03-11T00:43:48;3.80;;;3.33;;
22967;SDS011;11650;48.106;-1.696;2023-03-11T00:46:13;6.77;;;3.70;;
22967;SDS011;11650;48.106;-1.696;2023-03-11T00:48:39;4.43;;;3.70;;
22967;SDS011;11650;48.106;-1.696;2023-03-11T00:51:12;4.97;;;3.60;;
22967;SDS011;11650;48.106;-1.696;2023-03-11T00:53:39;5.57;;;4.17;;
22967;SDS011;11650;48.106;-1.696;2023-03-11T00:56:09;4.67;;;3.80;;
22967;SDS011;11650;48.106;-1.696;2023-03-11T00:58:35;5.87;;;4.47;;
22967;SDS011;11650;48.106;-1.696;2023-03-11T01:01:08;5.97;;;4.40;;
22967;SDS011;11650;48.106;-1.696;2023-03-11T01:03:35;5.87;;;4.13;;
22967;SDS011;11650;48.106;-1.696;2023-03-11T01:06:01;7.47;;;4.17;;
22967;SDS011;11650;48.106;-1.696;2023-03-11T01:08:27;5.23;;;4.40;;
22967;SDS011;11650;48.106;-1.696;2023-03-11T01:10:55;5.90;;;4.37;;
22967;SDS011;11650;48.106;-1.696;2023-03-11T01:13:21;5.43;;;4.00;;
22967;SDS011;11650;48.106;-1.696;2023-03-11T01:15:46;5.70;;;4.40;;
22967;SDS011;11650;48.106;-1.696;2023-03-11T01:18:12;6.23;;;4.23;;
22967;SDS011;11650;48.106;-1.696;2023-03-11T01:20:38;6.00;;;4.50;;
22967;SDS011;11650;48.106;-1.696;2023-03-11T01:23:04;5.50;;;4.50;;
22967;SDS011;11650;48.106;-1.696;2023-03-11T01:25:31;6.47;;;4.60;;
22967;SDS011;11650;48.106;-1.696;2023-03-11T01:27:57;6.57;;;4.80;;
22967;SDS011;11650;48.106;-1.696;2023-03-11T01:30:24;5.93;;;4.23;;
22967;SDS011;11650;48.106;-1.696;2023-03-11T01:32:50;6.27;;;4.93;;
22967;SDS011;11650;48.106;-1.696;2023-03-11T01:35:17;6.03;;;4.40;;
22967;SDS011;11650;48.106;-1.696;2023-03-11T01:37:45;6.60;;;4.57;;
22967;SDS011;11650;48.106;-1.696;2023-03-11T01:40:56;6.63;;;4.40;;
22967;SDS011;11650;48.106;-1.696;2023-03-11T01:43:03;8.47;;;4.40;;
22967;SDS011;11650;48.106;-1.696;2023-03-11T01:48:14;6.27;;;4.20;;
22967;SDS011;11650;48.106;-1.696;2023-03-11T01:50:41;6.23;;;3.87;;
22967;SDS011;11650;48.106;-1.696;2023-03-11T01:53:10;4.73;;;3.70;;
22967;SDS011;11650;48.106;-1.696;2023-03-11T01:55:39;6.03;;;4.37;;
22967;SDS011;11650;48.106;-1.696;2023-03-11T01:58:06;5.27;;;3.83;;
22967;SDS011;11650;48.106;-1.696;2023-03-11T02:00:35;5.03;;;4.17;;
22967;SDS011;11650;48.106;-1.696;2023-03-11T02:03:05;3.70;;;3.30;;
22967;SDS011;11650;48.106;-1.696;2023-03-11T02:05:50;6.90;;;4.00;;
22967;SDS011;11650;48.106;-1.696;2023-03-11T02:08:18;6.47;;;4.03;;
22967;SDS011;11650;48.106;-1.696;2023-03-11T02:10:44;4.53;;;3.60;;
22967;SDS011;11650;48.106;-1.696;2023-03-11T02:13:10;6.27;;;3.70;;
22967;SDS011;11650;48.106;-1.696;2023-03-11T02:15:36;4.57;;;3.73;;
22967;SDS011;11650;48.106;-1.696;2023-03-11T02:18:03;4.40;;;3.97;;
22967;SDS011;11650;48.106;-1.696;2023-03-11T02:20:46;6.73;;;3.93;;
22967;SDS011;11650;48.106;-1.696;2023-03-11T02:23:13;4.53;;;3.80;;
22967;SDS011;11650;48.106;-1.696;2023-03-11T02:25:44;5.40;;;3.80;;
22967;SDS011;11650;48.106;-1.696;2023-03-11T02:28:13;5.87;;;3.90;;
22967;SDS011;11650;48.106;-1.696;2023-03-11T02:30:40;4.23;;;3.60;;
22967;SDS011;11650;48.106;-1.696;2023-03-11T02:33:07;5.50;;;3.73;;
22967;SDS011;11650;48.106;-1.696;2023-03-11T02:35:34;6.43;;;3.90;;
22967;SDS011;11650;48.106;-1.696;2023-03-11T02:37:59;5.43;;;3.50;;
22967;SDS011;11650;48.106;-1.696;2023-03-11T02:43:13;5.87;;;3.87;;
22967;SDS011;11650;48.106;-1.696;2023-03-11T02:45:42;8.50;;;4.00;;
22967;SDS011;11650;48.106;-1.696;2023-03-11T02:48:10;4.83;;;3.70;;
22967;SDS011;11650;48.106;-1.696;2023-03-11T02:50:37;4.63;;;3.60;;
22967;SDS011;11650;48.106;-1.696;2023-03-11T02:53:04;5.37;;;3.63;;
22967;SDS011;11650;48.106;-1.696;2023-03-11T02:55:31;4.33;;;3.83;;
22967;SDS011;11650;48.106;-1.696;2023-03-11T02:57:57;6.70;;;4.10;;
22967;SDS011;11650;48.106;-1.696;2023-03-11T03:00:22;7.00;;;4.50;;
22967;SDS011;11650;48.106;-1.696;2023-03-11T03:02:49;4.67;;;3.70;;
22967;SDS011;11650;48.106;-1.696;2023-03-11T03:05:18;4.90;;;3.87;;
22967;SDS011;11650;48.106;-1.696;2023-03-11T03:07:49;4.30;;;3.30;;
22967;SDS011;11650;48.106;-1.696;2023-03-11T03:10:15;4.03;;;3.37;;
22967;SDS011;11650;48.106;-1.696;2023-03-11T03:12:42;6.50;;;3.77;;
22967;SDS011;11650;48.106;-1.696;2023-03-11T03:15:08;7.60;;;4.20;;
22967;SDS011;11650;48.106;-1.696;2023-03-11T03:17:35;5.90;;;3.97;;
22967;SDS011;11650;48.106;-1.696;2023-03-11T03:20:01;5.00;;;3.53;;
22967;SDS011;11650;48.106;-1.696;2023-03-11T03:22:30;4.10;;;3.50;;
22967;SDS011;11650;48.106;-1.696;2023-03-11T03:24:55;4.40;;;3.53;;
22967;SDS011;11650;48.106;-1.696;2023-03-11T03:27:21;7.07;;;3.80;;
22967;SDS011;11650;48.106;-1.696;2023-03-11T03:29:47;5.73;;;3.80;;
22967;SDS011;11650;48.106;-1.696;2023-03-11T03:32:12;6.70;;;3.90;;
22967;SDS011;11650;48.106;-1.696;2023-03-11T03:34:38;5.03;;;3.80;;
22967;SDS011;11650;48.106;-1.696;2023-03-11T03:37:03;5.90;;;4.43;;
22967;SDS011;11650;48.106;-1.696;2023-03-11T03:39:31;4.60;;;4.00;;
22967;SDS011;11650;48.106;-1.696;2023-03-11T03:41:57;4.33;;;3.53;;
22967;SDS011;11650;48.106;-1.696;2023-03-11T03:44:23;5.43;;;4.30;;
22967;SDS011;11650;48.106;-1.696;2023-03-11T03:46:49;4.70;;;4.10;;
22967;SDS011;11650;48.106;-1.696;2023-03-11T03:49:14;4.50;;;4.00;;
22967;SDS011;11650;48.106;-1.696;2023-03-11T03:51:40;4.83;;;3.73;;
22967;SDS011;11650;48.106;-1.696;2023-03-11T03:54:06;4.57;;;3.90;;
22967;SDS011;11650;48.106;-1.696;2023-03-11T03:56:31;4.93;;;4.10;;
22967;SDS011;11650;48.106;-1.696;2023-03-11T03:58:57;5.27;;;3.80;;
22967;SDS011;11650;48.106;-1.696;2023-03-11T04:01:23;4.50;;;3.83;;
22967;SDS011;11650;48.106;-1.696;2023-03-11T04:03:49;7.40;;;4.03;;
22967;SDS011;11650;48.106;-1.696;2023-03-11T04:08:45;4.70;;;3.77;;
22967;SDS011;11650;48.106;-1.696;2023-03-11T04:11:11;4.93;;;3.80;;
22967;SDS011;11650;48.106;-1.696;2023-03-11T04:13:37;5.00;;;4.00;;
22967;SDS011;11650;48.106;-1.696;2023-03-11T04:16:04;5.13;;;3.90;;
22967;SDS011;11650;48.106;-1.696;2023-03-11T04:18:31;4.27;;;3.40;;
22967;SDS011;11650;48.106;-1.696;2023-03-11T04:20:57;3.80;;;3.30;;
22967;SDS011;11650;48.106;-1.696;2023-03-11T04:23:23;4.37;;;3.07;;
22967;SDS011;11650;48.106;-1.696;2023-03-11T04:25:49;4.93;;;3.43;;
22967;SDS011;11650;48.106;-1.696;2023-03-11T04:28:14;4.27;;;3.20;;
22967;SDS011;11650;48.106;-1.696;2023-03-11T04:30:40;4.27;;;3.13;;
22967;SDS011;11650;48.106;-1.696;2023-03-11T04:33:06;3.57;;;2.80;;
22967;SDS011;11650;48.106;-1.696;2023-03-11T04:35:31;4.00;;;3.00;;
22967;SDS011;11650;48.106;-1.696;2023-03-11T04:37:58;4.20;;;2.70;;
22967;SDS011;11650;48.106;-1.696;2023-03-11T04:40:24;3.50;;;2.40;;
22967;SDS011;11650;48.106;-1.696;2023-03-11T04:42:51;4.37;;;2.90;;
22967;SDS011;11650;48.106;-1.696;2023-03-11T04:45:17;5.33;;;2.70;;
22967;SDS011;11650;48.106;-1.696;2023-03-11T04:47:45;4.07;;;2.87;;
22967;SDS011;11650;48.106;-1.696;2023-03-11T04:50:12;4.07;;;2.90;;
22967;SDS011;11650;48.106;-1.696;2023-03-11T04:52:38;3.87;;;3.20;;
22967;SDS011;11650;48.106;-1.696;2023-03-11T04:55:04;3.97;;;3.23;;
22967;SDS011;11650;48.106;-1.696;2023-03-11T04:57:30;5.37;;;3.00;;
22967;SDS011;11650;48.106;-1.696;2023-03-11T04:59:56;4.10;;;2.70;;
22967;SDS011;11650;48.106;-1.696;2023-03-11T05:02:21;5.37;;;2.83;;
22967;SDS011;11650;48.106;-1.696;2023-03-11T05:04:47;4.80;;;3.10;;
22967;SDS011;11650;48.106;-1.696;2023-03-11T05:07:13;3.70;;;2.60;;
22967;SDS011;11650;48.106;-1.696;2023-03-11T05:09:38;4.23;;;2.80;;
22967;SDS011;11650;48.106;-1.696;2023-03-11T05:12:04;3.03;;;2.60;;
22967;SDS011;11650;48.106;-1.696;2023-03-11T05:14:30;3.40;;;2.60;;
22967;SDS011;11650;48.106;-1.696;2023-03-11T05:16:56;3.63;;;2.97;;
22967;SDS011;11650;48.106;-1.696;2023-03-11T05:19:21;3.03;;;2.63;;
22967;SDS011;11650;48.106;-1.696;2023-03-11T05:21:56;3.37;;;2.80;;
22967;SDS011;11650;48.106;-1.696;2023-03-11T05:24:22;3.27;;;2.70;;
22967;SDS011;11650;48.106;-1.696;2023-03-11T05:26:50;3.37;;;2.87;;
22967;SDS011;11650;48.106;-1.696;2023-03-11T05:29:15;3.47;;;2.83;;
22967;SDS011;11650;48.106;-1.696;2023-03-11T05:31:41;3.43;;;2.67;;
22967;SDS011;11650;48.106;-1.696;2023-03-11T05:34:07;3.10;;;2.60;;
22967;SDS011;11650;48.106;-1.696;2023-03-11T05:36:33;3.33;;;2.63;;
22967;SDS011;11650;48.106;-1.696;2023-03-11T05:38:58;4.63;;;3.37;;
22967;SDS011;11650;48.106;-1.696;2023-03-11T05:41:24;3.43;;;3.13;;
22967;SDS011;11650;48.106;-1.696;2023-03-11T05:43:50;4.87;;;3.40;;
22967;SDS011;11650;48.106;-1.696;2023-03-11T05:46:15;3.77;;;3.10;;
22967;SDS011;11650;48.106;-1.696;2023-03-11T05:48:41;4.03;;;3.23;;
22967;SDS011;11650;48.106;-1.696;2023-03-11T05:51:08;4.07;;;2.80;;
22967;SDS011;11650;48.106;-1.696;2023-03-11T05:53:34;5.57;;;3.23;;
22967;SDS011;11650;48.106;-1.696;2023-03-11T05:56:00;4.23;;;3.07;;
22967;SDS011;11650;48.106;-1.696;2023-03-11T05:58:27;4.77;;;3.30;;
22967;SDS011;11650;48.106;-1.696;2023-03-11T06:00:54;4.50;;;3.27;;
22967;SDS011;11650;48.106;-1.696;2023-03-11T06:03:20;4.50;;;3.57;;
22967;SDS011;11650;48.106;-1.696;2023-03-11T06:05:46;4.20;;;3.70;;
22967;SDS011;11650;48.106;-1.696;2023-03-11T06:08:13;4.70;;;3.63;;
22967;SDS011;11650;48.106;-1.696;2023-03-11T06:10:39;5.07;;;4.00;;
22967;SDS011;11650;48.106;-1.696;2023-03-11T06:13:05;4.30;;;3.83;;
22967;SDS011;11650;48.106;-1.696;2023-03-11T06:15:34;4.77;;;4.00;;
22967;SDS011;11650;48.106;-1.696;2023-03-11T06:18:00;7.17;;;4.70;;
22967;SDS011;11650;48.106;-1.696;2023-03-11T06:20:26;5.50;;;4.50;;
22967;SDS011;11650;48.106;-1.696;2023-03-11T06:22:52;6.33;;;4.67;;
22967;SDS011;11650;48.106;-1.696;2023-03-11T06:25:18;6.33;;;4.63;;
22967;SDS011;11650;48.106;-1.696;2023-03-11T06:27:43;6.83;;;4.13;;
22967;SDS011;11650;48.106;-1.696;2023-03-11T06:30:14;5.83;;;4.20;;
22967;SDS011;11650;48.106;-1.696;2023-03-11T06:32:42;5.77;;;4.50;;
22967;SDS011;11650;48.106;-1.696;2023-03-11T06:35:09;6.00;;;4.47;;
22967;SDS011;11650;48.106;-1.696;2023-03-11T06:37:35;5.03;;;4.30;;
22967;SDS011;11650;48.106;-1.696;2023-03-11T06:40:01;7.17;;;4.70;;
22967;SDS011;11650;48.106;-1.696;2023-03-11T06:42:29;5.37;;;4.57;;
22967;SDS011;11650;48.106;-1.696;2023-03-11T06:44:54;5.43;;;4.50;;
22967;SDS011;11650;48.106;-1.696;2023-03-11T06:47:20;5.27;;;4.30;;
22967;SDS011;11650;48.106;-1.696;2023-03-11T06:49:46;6.47;;;5.43;;
22967;SDS011;11650;48.106;-1.696;2023-03-11T06:52:12;5.70;;;4.50;;
22967;SDS011;11650;48.106;-1.696;2023-03-11T06:54:37;6.40;;;4.90;;
22967;SDS011;11650;48.106;-1.696;2023-03-11T06:57:05;5.93;;;4.53;;
22967;SDS011;11650;48.106;-1.696;2023-03-11T06:59:31;7.40;;;5.03;;
22967;SDS011;11650;48.106;-1.696;2023-03-11T07:01:57;5.90;;;4.63;;
22967;SDS011;11650;48.106;-1.696;2023-03-11T07:04:23;4.83;;;4.30;;
22967;SDS011;11650;48.106;-1.696;2023-03-11T07:06:48;6.57;;;5.17;;
22967;SDS011;11650;48.106;-1.696;2023-03-11T07:09:14;6.53;;;5.00;;
22967;SDS011;11650;48.106;-1.696;2023-03-11T07:11:40;5.93;;;4.20;;
22967;SDS011;11650;48.106;-1.696;2023-03-11T07:14:06;7.17;;;4.63;;
22967;SDS011;11650;48.106;-1.696;2023-03-11T07:16:31;6.67;;;5.17;;
22967;SDS011;11650;48.106;-1.696;2023-03-11T07:18:58;5.73;;;4.57;;
22967;SDS011;11650;48.106;-1.696;2023-03-11T07:21:25;5.50;;;4.10;;
22967;SDS011;11650;48.106;-1.696;2023-03-11T07:23:53;6.07;;;4.37;;
22967;SDS011;11650;48.106;-1.696;2023-03-11T07:26:19;5.80;;;4.53;;
22967;SDS011;11650;48.106;-1.696;2023-03-11T07:28:45;4.47;;;4.00;;
22967;SDS011;11650;48.106;-1.696;2023-03-11T07:31:17;7.77;;;5.00;;
22967;SDS011;11650;48.106;-1.696;2023-03-11T07:33:45;6.20;;;4.30;;
22967;SDS011;11650;48.106;-1.696;2023-03-11T07:36:12;6.30;;;4.20;;
22967;SDS011;11650;48.106;-1.696;2023-03-11T07:38:42;6.40;;;4.37;;
22967;SDS011;11650;48.106;-1.696;2023-03-11T07:41:09;5.10;;;3.90;;
22967;SDS011;11650;48.106;-1.696;2023-03-11T07:43:36;5.07;;;4.07;;
22967;SDS011;11650;48.106;-1.696;2023-03-11T07:46:03;5.53;;;4.27;;
22967;SDS011;11650;48.106;-1.696;2023-03-11T07:48:34;5.10;;;4.30;;
22967;SDS011;11650;48.106;-1.696;2023-03-11T07:51:09;4.57;;;3.70;;
22967;SDS011;11650;48.106;-1.696;2023-03-11T07:53:37;4.97;;;4.10;;
22967;SDS011;11650;48.106;-1.696;2023-03-11T07:56:04;4.80;;;3.80;;
22967;SDS011;11650;48.106;-1.696;2023-03-11T07:58:31;5.23;;;4.00;;
22967;SDS011;11650;48.106;-1.696;2023-03-11T08:01:02;5.93;;;3.90;;
22967;SDS011;11650;48.106;-1.696;2023-03-11T08:03:40;7.03;;;3.97;;
22967;SDS011;11650;48.106;-1.696;2023-03-11T08:08:42;5.00;;;3.30;;
22967;SDS011;11650;48.106;-1.696;2023-03-11T08:11:08;4.90;;;3.60;;
22967;SDS011;11650;48.106;-1.696;2023-03-11T08:13:34;4.87;;;3.50;;
22967;SDS011;11650;48.106;-1.696;2023-03-11T08:16:03;5.73;;;3.80;;
22967;SDS011;11650;48.106;-1.696;2023-03-11T08:18:30;6.57;;;3.80;;
22967;SDS011;11650;48.106;-1.696;2023-03-11T08:20:56;4.33;;;3.60;;
22967;SDS011;11650;48.106;-1.696;2023-03-11T08:23:22;4.50;;;3.63;;
22967;SDS011;11650;48.106;-1.696;2023-03-11T08:25:48;6.70;;;4.10;;
22967;SDS011;11650;48.106;-1.696;2023-03-11T08:28:14;4.60;;;3.67;;
22967;SDS011;11650;48.106;-1.696;2023-03-11T08:30:40;5.67;;;3.83;;
22967;SDS011;11650;48.106;-1.696;2023-03-11T08:33:05;4.60;;;3.50;;
22967;SDS011;11650;48.106;-1.696;2023-03-11T08:35:31;5.43;;;3.77;;
22967;SDS011;11650;48.106;-1.696;2023-03-11T08:37:57;4.13;;;3.27;;
22967;SDS011;11650;48.106;-1.696;2023-03-11T08:40:23;5.17;;;4.00;;
22967;SDS011;11650;48.106;-1.696;2023-03-11T08:42:48;4.97;;;3.60;;
22967;SDS011;11650;48.106;-1.696;2023-03-11T08:45:14;3.63;;;3.00;;
22967;SDS011;11650;48.106;-1.696;2023-03-11T08:47:40;3.80;;;3.20;;
22967;SDS011;11650;48.106;-1.696;2023-03-11T08:50:07;4.00;;;3.30;;
22967;SDS011;11650;48.106;-1.696;2023-03-11T08:52:38;4.87;;;3.60;;
22967;SDS011;11650;48.106;-1.696;2023-03-11T08:55:04;4.60;;;3.43;;
22967;SDS011;11650;48.106;-1.696;2023-03-11T08:57:30;4.57;;;3.50;;
22967;SDS011;11650;48.106;-1.696;2023-03-11T08:59:56;4.70;;;3.40;;
22967;SDS011;11650;48.106;-1.696;2023-03-11T09:02:23;4.23;;;3.53;;
22967;SDS011;11650;48.106;-1.696;2023-03-11T09:04:49;4.07;;;3.43;;
22967;SDS011;11650;48.106;-1.696;2023-03-11T09:07:15;5.07;;;3.70;;
22967;SDS011;11650;48.106;-1.696;2023-03-11T09:09:41;4.10;;;3.27;;
22967;SDS011;11650;48.106;-1.696;2023-03-11T09:12:07;5.23;;;3.50;;
22967;SDS011;11650;48.106;-1.696;2023-03-11T09:14:33;3.87;;;3.30;;
22967;SDS011;11650;48.106;-1.696;2023-03-11T09:17:01;4.97;;;3.30;;
22967;SDS011;11650;48.106;-1.696;2023-03-11T09:19:27;4.93;;;3.10;;
22967;SDS011;11650;48.106;-1.696;2023-03-11T09:21:53;3.73;;;3.30;;
22967;SDS011;11650;48.106;-1.696;2023-03-11T09:24:18;4.23;;;3.43;;
22967;SDS011;11650;48.106;-1.696;2023-03-11T09:26:44;4.57;;;3.57;;
22967;SDS011;11650;48.106;-1.696;2023-03-11T09:29:10;5.77;;;3.20;;
22967;SDS011;11650;48.106;-1.696;2023-03-11T09:31:35;3.93;;;3.20;;
22967;SDS011;11650;48.106;-1.696;2023-03-11T09:34:02;8.20;;;3.83;;
22967;SDS011;11650;48.106;-1.696;2023-03-11T09:36:28;4.03;;;3.10;;
22967;SDS011;11650;48.106;-1.696;2023-03-11T09:38:53;3.30;;;2.80;;
22967;SDS011;11650;48.106;-1.696;2023-03-11T09:41:21;4.73;;;3.30;;
22967;SDS011;11650;48.106;-1.696;2023-03-11T09:46:47;3.97;;;3.20;;
22967;SDS011;11650;48.106;-1.696;2023-03-11T09:51:49;3.67;;;2.77;;
22967;SDS011;11650;48.106;-1.696;2023-03-11T09:54:25;4.53;;;2.87;;
22967;SDS011;11650;48.106;-1.696;2023-03-11T09:56:56;2.97;;;2.47;;
22967;SDS011;11650;48.106;-1.696;2023-03-11T09:59:29;3.03;;;2.50;;
22967;SDS011;11650;48.106;-1.696;2023-03-11T10:01:56;3.80;;;2.83;;
22967;SDS011;11650;48.106;-1.696;2023-03-11T10:07:19;3.27;;;2.47;;
22967;SDS011;11650;48.106;-1.696;2023-03-11T10:09:55;2.43;;;2.00;;
22967;SDS011;11650;48.106;-1.696;2023-03-11T10:12:35;2.50;;;2.23;;
22967;SDS011;11650;48.106;-1.696;2023-03-11T10:21:00;4.57;;;3.20;;
22967;SDS011;11650;48.106;-1.696;2023-03-11T10:26:36;3.63;;;2.70;;
22967;SDS011;11650;48.106;-1.696;2023-03-11T10:29:18;2.83;;;2.50;;
22967;SDS011;11650;48.106;-1.696;2023-03-11T10:32:01;3.10;;;2.20;;
22967;SDS011;11650;48.106;-1.696;2023-03-11T10:34:52;3.37;;;2.30;;
22967;SDS011;11650;48.106;-1.696;2023-03-11T10:37:26;4.33;;;2.73;;
22967;SDS011;11650;48.106;-1.696;2023-03-11T10:40:21;5.20;;;2.90;;
22967;SDS011;11650;48.106;-1.696;2023-03-11T10:42:48;2.70;;;2.10;;
22967;SDS011;11650;48.106;-1.696;2023-03-11T10:45:15;3.70;;;2.20;;
22967;SDS011;11650;48.106;-1.696;2023-03-11T10:47:44;2.83;;;1.90;;
22967;SDS011;11650;48.106;-1.696;2023-03-11T10:50:11;2.83;;;1.80;;
22967;SDS011;11650;48.106;-1.696;2023-03-11T10:53:27;2.97;;;2.00;;
22967;SDS011;11650;48.106;-1.696;2023-03-11T10:55:51;3.70;;;2.00;;
22967;SDS011;11650;48.106;-1.696;2023-03-11T10:58:22;3.93;;;1.93;;
22967;SDS011;11650;48.106;-1.696;2023-03-11T11:01:04;3.77;;;2.13;;
22967;SDS011;11650;48.106;-1.696;2023-03-11T11:03:40;3.63;;;2.03;;
22967;SDS011;11650;48.106;-1.696;2023-03-11T11:06:16;2.90;;;2.20;;
22967;SDS011;11650;48.106;-1.696;2023-03-11T11:08:44;3.23;;;2.20;;
22967;SDS011;11650;48.106;-1.696;2023-03-11T11:11:21;4.43;;;2.37;;
22967;SDS011;11650;48.106;-1.696;2023-03-11T11:13:55;4.63;;;2.40;;
22967;SDS011;11650;48.106;-1.696;2023-03-11T11:16:21;3.80;;;2.33;;
22967;SDS011;11650;48.106;-1.696;2023-03-11T11:18:56;2.70;;;1.70;;
22967;SDS011;11650;48.106;-1.696;2023-03-11T11:21:32;3.73;;;2.07;;
22967;SDS011;11650;48.106;-1.696;2023-03-11T11:26:35;2.83;;;1.80;;
22967;SDS011;11650;48.106;-1.696;2023-03-11T11:31:45;1.53;;;1.30;;
22967;SDS011;11650;48.106;-1.696;2023-03-11T11:34:23;1.70;;;1.60;;
22967;SDS011;11650;48.106;-1.696;2023-03-11T11:36:55;2.73;;;1.93;;
22967;SDS011;11650;48.106;-1.696;2023-03-11T11:39:25;2.10;;;1.60;;
22967;SDS011;11650;48.106;-1.696;2023-03-11T11:41:53;3.17;;;2.03;;
22967;SDS011;11650;48.106;-1.696;2023-03-11T11:44:21;6.17;;;2.30;;
22967;SDS011;11650;48.106;-1.696;2023-03-11T11:46:51;2.07;;;1.80;;
22967;SDS011;11650;48.106;-1.696;2023-03-11T11:49:23;3.50;;;1.83;;
22967;SDS011;11650;48.106;-1.696;2023-03-11T11:54:27;2.10;;;1.73;;
22967;SDS011;11650;48.106;-1.696;2023-03-11T11:57:13;2.50;;;1.90;;
22967;SDS011;11650;48.106;-1.696;2023-03-11T11:59:40;3.40;;;2.27;;
22967;SDS011;11650;48.106;-1.696;2023-03-11T12:10:31;2.30;;;1.73;;
22967;SDS011;11650;48.106;-1.696;2023-03-11T12:15:46;2.33;;;1.73;;
22967;SDS011;11650;48.106;-1.696;2023-03-11T12:18:23;1.87;;;1.70;;
22967;SDS011;11650;48.106;-1.696;2023-03-11T12:20:59;2.67;;;1.73;;
22967;SDS011;11650;48.106;-1.696;2023-03-11T12:26:35;2.60;;;2.10;;
22967;SDS011;11650;48.106;-1.696;2023-03-11T12:29:06;2.50;;;2.17;;
22967;SDS011;11650;48.106;-1.696;2023-03-11T12:31:51;2.90;;;2.27;;
22967;SDS011;11650;48.106;-1.696;2023-03-11T12:34:19;5.13;;;2.20;;
22967;SDS011;11650;48.106;-1.696;2023-03-11T12:36:48;3.27;;;2.60;;
22967;SDS011;11650;48.106;-1.696;2023-03-11T12:41:47;3.97;;;2.97;;
22967;SDS011;11650;48.106;-1.696;2023-03-11T12:44:24;4.50;;;2.93;;
22967;SDS011;11650;48.106;-1.696;2023-03-11T12:49:25;4.83;;;3.43;;
22967;SDS011;11650;48.106;-1.696;2023-03-11T12:54:48;5.57;;;3.50;;
22967;SDS011;11650;48.106;-1.696;2023-03-11T13:08:55;7.47;;;4.90;;
22967;SDS011;11650;48.106;-1.696;2023-03-11T13:16:44;8.67;;;5.23;;
22967;SDS011;11650;48.106;-1.696;2023-03-11T13:21:52;10.53;;;6.30;;
22967;SDS011;11650;48.106;-1.696;2023-03-11T13:26:49;7.27;;;5.53;;
22967;SDS011;11650;48.106;-1.696;2023-03-11T13:32:16;12.23;;;6.20;;
22967;SDS011;11650;48.106;-1.696;2023-03-11T13:42:50;10.53;;;6.87;;
22967;SDS011;11650;48.106;-1.696;2023-03-11T13:45:54;8.67;;;6.50;;
22967;SDS011;11650;48.106;-1.696;2023-03-11T13:51:13;9.10;;;6.40;;
22967;SDS011;11650;48.106;-1.696;2023-03-11T13:53:47;9.53;;;6.83;;
22967;SDS011;11650;48.106;-1.696;2023-03-11T13:56:25;8.20;;;5.60;;
22967;SDS011;11650;48.106;-1.696;2023-03-11T13:58:53;8.93;;;6.33;;
22967;SDS011;11650;48.106;-1.696;2023-03-11T14:01:18;7.60;;;5.47;;
22967;SDS011;11650;48.106;-1.696;2023-03-11T14:03:45;8.03;;;6.40;;
22967;SDS011;11650;48.106;-1.696;2023-03-11T14:06:13;7.80;;;5.80;;
22967;SDS011;11650;48.106;-1.696;2023-03-11T14:08:41;9.97;;;6.23;;
22967;SDS011;11650;48.106;-1.696;2023-03-11T14:13:38;14.37;;;11.07;;
22967;SDS011;11650;48.106;-1.696;2023-03-11T14:16:07;10.20;;;6.37;;
22967;SDS011;11650;48.106;-1.696;2023-03-11T14:19:04;7.00;;;5.67;;
22967;SDS011;11650;48.106;-1.696;2023-03-11T14:21:40;9.30;;;5.93;;
22967;SDS011;11650;48.106;-1.696;2023-03-11T14:24:13;11.43;;;6.80;;
22967;SDS011;11650;48.106;-1.696;2023-03-11T14:26:40;10.57;;;5.93;;
22967;SDS011;11650;48.106;-1.696;2023-03-11T14:29:07;17.33;;;9.73;;
22967;SDS011;11650;48.106;-1.696;2023-03-11T14:31:37;9.97;;;5.23;;
22967;SDS011;11650;48.106;-1.696;2023-03-11T14:34:15;8.63;;;5.27;;
22967;SDS011;11650;48.106;-1.696;2023-03-11T14:44:28;6.13;;;3.90;;
22967;SDS011;11650;48.106;-1.696;2023-03-11T14:47:08;6.33;;;3.60;;
22967;SDS011;11650;48.106;-1.696;2023-03-11T14:49:34;5.23;;;3.13;;
22967;SDS011;11650;48.106;-1.696;2023-03-11T14:52:02;7.87;;;3.70;;
22967;SDS011;11650;48.106;-1.696;2023-03-11T14:54:32;5.10;;;2.90;;
22967;SDS011;11650;48.106;-1.696;2023-03-11T14:57:04;8.37;;;3.10;;
22967;SDS011;11650;48.106;-1.696;2023-03-11T14:59:33;5.77;;;2.50;;
22967;SDS011;11650;48.106;-1.696;2023-03-11T15:02:24;6.70;;;2.40;;
22967;SDS011;11650;48.106;-1.696;2023-03-11T15:04:54;6.17;;;2.30;;
22967;SDS011;11650;48.106;-1.696;2023-03-11T15:07:21;7.17;;;2.30;;
22967;SDS011;11650;48.106;-1.696;2023-03-11T15:09:47;6.83;;;3.90;;
22967;SDS011;11650;48.106;-1.696;2023-03-11T15:12:32;6.93;;;2.63;;
22967;SDS011;11650;48.106;-1.696;2023-03-11T15:15:24;5.83;;;2.47;;
22967;SDS011;11650;48.106;-1.696;2023-03-11T15:17:56;6.63;;;2.10;;
22967;SDS011;11650;48.106;-1.696;2023-03-11T15:23:05;9.13;;;2.40;;
22967;SDS011;11650;48.106;-1.696;2023-03-11T15:25:46;6.17;;;2.20;;
22967;SDS011;11650;48.106;-1.696;2023-03-11T15:30:49;7.63;;;2.23;;
22967;SDS011;11650;48.106;-1.696;2023-03-11T15:33:20;7.77;;;3.00;;
22967;SDS011;11650;48.106;-1.696;2023-03-11T15:35:47;6.70;;;3.17;;
22967;SDS011;11650;48.106;-1.696;2023-03-11T15:38:18;8.93;;;3.70;;
22967;SDS011;11650;48.106;-1.696;2023-03-11T15:40:59;9.90;;;4.40;;
22967;SDS011;11650;48.106;-1.696;2023-03-11T15:43:27;11.20;;;4.90;;
22967;SDS011;11650;48.106;-1.696;2023-03-11T15:45:59;10.03;;;5.13;;
22967;SDS011;11650;48.106;-1.696;2023-03-11T15:48:27;8.70;;;5.10;;
22967;SDS011;11650;48.106;-1.696;2023-03-11T15:50:55;7.50;;;5.23;;
22967;SDS011;11650;48.106;-1.696;2023-03-11T15:53:22;10.37;;;5.30;;
22967;SDS011;11650;48.106;-1.696;2023-03-11T15:55:50;12.33;;;5.67;;
22967;SDS011;11650;48.106;-1.696;2023-03-11T15:58:18;8.50;;;5.17;;
22967;SDS011;11650;48.106;-1.696;2023-03-11T16:00:46;10.33;;;4.80;;
22967;SDS011;11650;48.106;-1.696;2023-03-11T16:03:22;7.97;;;4.60;;
22967;SDS011;11650;48.106;-1.696;2023-03-11T16:05:47;8.57;;;4.57;;
22967;SDS011;11650;48.106;-1.696;2023-03-11T16:08:13;10.70;;;4.90;;
22967;SDS011;11650;48.106;-1.696;2023-03-11T16:10:39;9.03;;;5.07;;
22967;SDS011;11650;48.106;-1.696;2023-03-11T16:13:08;7.80;;;4.43;;
22967;SDS011;11650;48.106;-1.696;2023-03-11T16:15:36;7.03;;;3.83;;
22967;SDS011;11650;48.106;-1.696;2023-03-11T16:18:05;9.53;;;4.40;;
22967;SDS011;11650;48.106;-1.696;2023-03-11T16:20:35;10.70;;;4.83;;
22967;SDS011;11650;48.106;-1.696;2023-03-11T16:23:03;6.03;;;4.13;;
22967;SDS011;11650;48.106;-1.696;2023-03-11T16:25:38;9.17;;;4.90;;
22967;SDS011;11650;48.106;-1.696;2023-03-11T16:28:04;8.47;;;3.60;;
22967;SDS011;11650;48.106;-1.696;2023-03-11T16:30:31;7.07;;;3.87;;
22967;SDS011;11650;48.106;-1.696;2023-03-11T16:32:58;6.50;;;3.53;;